createdAt,value
2023-10-02T04:56:30.202Z,228.70
2023-10-02T04:57:31.218Z,195.90
2023-10-02T04:58:31.189Z,192.40
2023-10-02T04:59:31.164Z,225.10
2023-10-02T05:00:31.171Z,213.20
2023-10-02T05:01:31.228Z,202.40
2023-10-02T05:02:31.209Z,248.30
2023-10-02T05:03:31.159Z,280.90
2023-10-02T05:04:31.154Z,233.90
2023-10-02T05:05:31.134Z,225.00
2023-10-02T05:06:31.108Z,239.60
2023-10-02T05:07:31.078Z,259.50
2023-10-02T05:08:31.078Z,260.80
2023-10-02T05:09:31.105Z,249.80
2023-10-02T05:10:31.042Z,286.40
2023-10-02T05:11:31.044Z,230.30
2023-10-02T05:12:31.038Z,217.40
2023-10-02T05:13:31.046Z,178.70
2023-10-02T05:14:34.542Z,176.00
2023-10-02T05:15:31.020Z,172.40
2023-10-02T05:16:31.091Z,187.40
2023-10-02T05:17:31.032Z,201.10
2023-10-02T05:18:31.082Z,180.70
2023-10-02T05:19:31.015Z,176.80
2023-10-02T05:20:30.955Z,176.40
2023-10-02T05:21:30.942Z,184.20
2023-10-02T05:22:30.930Z,175.70
2023-10-02T05:23:30.953Z,167.70
2023-10-02T05:24:30.916Z,170.20
2023-10-02T05:25:30.901Z,164.40
2023-10-02T05:43:05.730Z,165.10
2023-10-02T05:44:06.756Z,159.00
2023-10-02T05:47:08.696Z,162.30
2023-10-02T05:48:09.430Z,157.40
2023-10-02T05:49:09.129Z,156.50
2023-10-02T05:50:08.695Z,149.40
2023-10-02T05:51:08.581Z,148.90
2023-10-02T08:27:37.898Z,344.90
2023-10-02T08:28:38.837Z,310.10
2023-10-02T08:29:38.798Z,285.70
2023-10-02T08:30:38.796Z,272.80
2023-10-02T08:31:38.799Z,280.60
2023-10-02T08:32:38.809Z,267.60
2023-10-02T08:33:59.915Z,260.50
2023-10-02T08:34:38.860Z,265.50
2023-10-02T08:35:38.798Z,267.70
2023-10-02T08:36:38.712Z,270.20
2023-10-02T08:37:38.800Z,270.70
2023-10-02T08:38:38.675Z,263.80
2023-10-02T08:39:38.688Z,277.90
2023-10-02T08:40:39.513Z,272.70
2023-10-02T08:41:38.650Z,276.10
2023-10-02T08:42:38.674Z,253.50
2023-10-02T08:43:38.656Z,251.90
2023-10-02T08:44:38.609Z,267.10
2023-10-02T08:45:38.646Z,275.30
2023-10-02T08:46:38.624Z,274.10
2023-10-02T08:47:38.651Z,279.20
2023-10-02T08:48:38.571Z,282.90
2023-10-02T08:49:38.616Z,273.40
2023-10-02T08:50:38.542Z,275.90
2023-10-02T08:51:38.557Z,287.00
2023-10-02T08:52:38.573Z,294.00
2023-10-02T08:53:38.518Z,293.90
2023-10-02T08:54:38.519Z,274.80
2023-10-02T08:55:38.510Z,285.40
2023-10-02T08:56:38.489Z,314.00
2023-10-02T08:57:40.166Z,384.10
2023-10-02T08:58:38.476Z,437.40
2023-10-02T08:59:38.449Z,596.90
2023-10-02T09:00:38.509Z,804.70
2023-10-02T09:01:38.479Z,848.30
2023-10-02T09:02:38.503Z,862.30
2023-10-02T09:03:38.528Z,850.00
2023-10-02T09:04:38.395Z,741.10
2023-10-02T09:05:38.404Z,573.90
2023-10-02T09:06:38.398Z,258.50
2023-10-02T09:07:38.381Z,248.40
2023-10-02T09:08:38.382Z,222.30
2023-10-02T09:09:38.358Z,258.30
2023-10-02T09:10:38.383Z,258.60
2023-10-02T09:11:38.359Z,277.40
2023-10-02T09:12:38.321Z,352.50
2023-10-02T09:13:38.343Z,326.90
2023-10-02T09:14:38.338Z,348.90
2023-10-02T09:15:38.398Z,360.10
2023-10-02T09:16:38.326Z,317.70
2023-10-02T09:17:38.338Z,294.00
2023-10-02T09:18:38.277Z,319.30
2023-10-02T09:19:38.252Z,361.10
2023-10-02T09:20:38.239Z,380.30
2023-10-02T09:21:38.207Z,417.00
2023-10-02T09:22:38.205Z,455.40
2023-10-02T09:23:38.181Z,469.80
2023-10-02T09:24:38.177Z,457.70
2023-10-02T09:25:38.176Z,477.80
2023-10-02T09:26:38.151Z,435.20
2023-10-02T09:27:38.136Z,391.60
2023-10-02T09:28:38.130Z,340.50
2023-10-02T09:29:38.162Z,283.20
2023-10-02T09:30:42.282Z,274.80
2023-10-02T09:31:38.139Z,226.80
2023-10-02T09:32:38.186Z,173.80
2023-10-02T09:34:02.881Z,168.80
2023-10-02T09:35:11.751Z,163.70
2023-10-02T09:36:04.249Z,163.00
2023-10-02T09:37:37.451Z,164.90
2023-10-02T09:38:11.835Z,163.60
2023-10-02T09:38:38.161Z,273.30
2023-10-02T09:39:38.141Z,267.40
2023-10-02T09:40:38.227Z,323.60
2023-10-02T09:41:38.011Z,284.40
2023-10-02T09:42:37.970Z,325.10
2023-10-02T09:43:38.015Z,326.20
2023-10-02T09:44:38.062Z,294.10
2023-10-02T09:45:37.974Z,302.60
2023-10-02T09:46:37.937Z,316.40
